sensor_id;sensor_type;location;lat;lon;timestamp;P1;durP1;ratioP1;P2;durP2;ratioP2
52590;SDS011;38483;42.620;25.394;2023-03-01T00:02:15;3.57;;;3.20;;
52590;SDS011;38483;42.620;25.394;2023-03-01T00:04:42;4.67;;;3.80;;
52590;SDS011;38483;42.620;25.394;2023-03-01T00:07:09;4.40;;;3.60;;
52590;SDS011;38483;42.620;25.394;2023-03-01T00:09:36;5.00;;;4.10;;
52590;SDS011;38483;42.620;25.394;2023-03-01T00:12:04;4.23;;;3.83;;
52590;SDS011;38483;42.620;25.394;2023-03-01T00:14:31;5.43;;;4.87;;
52590;SDS011;38483;42.620;25.394;2023-03-01T00:16:58;6.53;;;4.63;;
52590;SDS011;38483;42.620;25.394;2023-03-01T00:19:25;5.43;;;4.53;;
52590;SDS011;38483;42.620;25.394;2023-03-01T00:21:52;6.60;;;5.63;;
52590;SDS011;38483;42.620;25.394;2023-03-01T00:24:19;9.03;;;6.20;;
52590;SDS011;38483;42.620;25.394;2023-03-01T00:26:46;7.90;;;5.93;;
52590;SDS011;38483;42.620;25.394;2023-03-01T00:29:13;10.03;;;6.83;;
52590;SDS011;38483;42.620;25.394;2023-03-01T00:31:40;9.23;;;6.87;;
52590;SDS011;38483;42.620;25.394;2023-03-01T00:34:09;12.27;;;7.90;;
52590;SDS011;38483;42.620;25.394;2023-03-01T00:36:36;10.60;;;7.80;;
52590;SDS011;38483;42.620;25.394;2023-03-01T00:39:05;10.43;;;7.30;;
52590;SDS011;38483;42.620;25.394;2023-03-01T00:41:34;9.53;;;6.87;;
52590;SDS011;38483;42.620;25.394;2023-03-01T00:44:01;7.77;;;6.23;;
52590;SDS011;38483;42.620;25.394;2023-03-01T00:46:28;6.97;;;5.43;;
52590;SDS011;38483;42.620;25.394;2023-03-01T00:48:57;4.87;;;4.37;;
52590;SDS011;38483;42.620;25.394;2023-03-01T00:51:26;4.23;;;3.80;;
52590;SDS011;38483;42.620;25.394;2023-03-01T00:53:56;3.83;;;3.43;;
52590;SDS011;38483;42.620;25.394;2023-03-01T00:56:25;4.43;;;3.57;;
52590;SDS011;38483;42.620;25.394;2023-03-01T00:58:53;3.33;;;2.90;;
52590;SDS011;38483;42.620;25.394;2023-03-01T01:01:24;3.33;;;3.03;;
52590;SDS011;38483;42.620;25.394;2023-03-01T01:03:57;3.00;;;2.70;;
52590;SDS011;38483;42.620;25.394;2023-03-01T01:06:27;2.67;;;2.40;;
52590;SDS011;38483;42.620;25.394;2023-03-01T01:08:57;3.63;;;2.30;;
52590;SDS011;38483;42.620;25.394;2023-03-01T01:11:25;2.00;;;1.80;;
52590;SDS011;38483;42.620;25.394;2023-03-01T01:13:54;2.00;;;1.60;;
52590;SDS011;38483;42.620;25.394;2023-03-01T01:16:23;1.70;;;1.30;;
52590;SDS011;38483;42.620;25.394;2023-03-01T01:18:51;1.63;;;1.40;;
52590;SDS011;38483;42.620;25.394;2023-03-01T01:21:20;1.60;;;1.47;;
52590;SDS011;38483;42.620;25.394;2023-03-01T01:23:48;1.57;;;1.40;;
52590;SDS011;38483;42.620;25.394;2023-03-01T01:26:17;2.83;;;1.40;;
52590;SDS011;38483;42.620;25.394;2023-03-01T01:28:48;1.50;;;1.20;;
52590;SDS011;38483;42.620;25.394;2023-03-01T01:31:15;2.53;;;1.80;;
52590;SDS011;38483;42.620;25.394;2023-03-01T01:33:42;2.40;;;1.60;;
52590;SDS011;38483;42.620;25.394;2023-03-01T01:36:10;1.70;;;1.60;;
52590;SDS011;38483;42.620;25.394;2023-03-01T01:38:37;1.70;;;1.60;;
52590;SDS011;38483;42.620;25.394;2023-03-01T01:41:05;1.77;;;1.60;;
52590;SDS011;38483;42.620;25.394;2023-03-01T01:43:34;2.20;;;1.90;;
52590;SDS011;38483;42.620;25.394;2023-03-01T01:49:00;1.70;;;1.60;;
52590;SDS011;38483;42.620;25.394;2023-03-01T01:51:37;1.80;;;1.70;;
52590;SDS011;38483;42.620;25.394;2023-03-01T01:54:12;2.13;;;1.97;;
52590;SDS011;38483;42.620;25.394;2023-03-01T01:56:46;2.07;;;1.90;;
52590;SDS011;38483;42.620;25.394;2023-03-01T01:59:18;2.00;;;1.80;;
52590;SDS011;38483;42.620;25.394;2023-03-01T02:01:51;1.80;;;1.70;;
52590;SDS011;38483;42.620;25.394;2023-03-01T02:04:20;1.83;;;1.63;;
52590;SDS011;38483;42.620;25.394;2023-03-01T02:06:49;1.63;;;1.53;;
52590;SDS011;38483;42.620;25.394;2023-03-01T02:09:22;2.00;;;1.80;;
52590;SDS011;38483;42.620;25.394;2023-03-01T02:11:50;2.17;;;1.83;;
52590;SDS011;38483;42.620;25.394;2023-03-01T02:14:18;2.10;;;1.90;;
52590;SDS011;38483;42.620;25.394;2023-03-01T02:16:45;1.80;;;1.67;;
52590;SDS011;38483;42.620;25.394;2023-03-01T02:19:16;2.20;;;2.00;;
52590;SDS011;38483;42.620;25.394;2023-03-01T02:30:29;1.60;;;1.50;;
52590;SDS011;38483;42.620;25.394;2023-03-01T02:32:57;2.00;;;1.67;;
52590;SDS011;38483;42.620;25.394;2023-03-01T02:35:37;1.80;;;1.60;;
52590;SDS011;38483;42.620;25.394;2023-03-01T02:38:06;1.83;;;1.63;;
52590;SDS011;38483;42.620;25.394;2023-03-01T02:40:35;1.77;;;1.67;;
52590;SDS011;38483;42.620;25.394;2023-03-01T02:43:04;1.87;;;1.73;;
52590;SDS011;38483;42.620;25.394;2023-03-01T02:45:35;1.47;;;1.37;;
52590;SDS011;38483;42.620;25.394;2023-03-01T02:48:02;1.60;;;1.50;;
52590;SDS011;38483;42.620;25.394;2023-03-01T02:55:58;3.73;;;3.17;;
52590;SDS011;38483;42.620;25.394;2023-03-01T02:58:26;1.97;;;1.57;;
52590;SDS011;38483;42.620;25.394;2023-03-01T03:00:52;1.60;;;1.50;;
52590;SDS011;38483;42.620;25.394;2023-03-01T03:03:20;2.17;;;1.97;;
52590;SDS011;38483;42.620;25.394;2023-03-01T03:05:48;2.73;;;2.53;;
52590;SDS011;38483;42.620;25.394;2023-03-01T03:08:15;4.13;;;2.63;;
52590;SDS011;38483;42.620;25.394;2023-03-01T03:10:51;4.20;;;2.80;;
52590;SDS011;38483;42.620;25.394;2023-03-01T03:13:18;3.10;;;2.80;;
52590;SDS011;38483;42.620;25.394;2023-03-01T03:15:45;3.97;;;2.67;;
52590;SDS011;38483;42.620;25.394;2023-03-01T03:18:13;3.17;;;2.07;;
52590;SDS011;38483;42.620;25.394;2023-03-01T03:20:43;2.60;;;2.40;;
52590;SDS011;38483;42.620;25.394;2023-03-01T03:23:11;3.10;;;2.67;;
52590;SDS011;38483;42.620;25.394;2023-03-01T03:25:38;4.90;;;3.83;;
52590;SDS011;38483;42.620;25.394;2023-03-01T03:28:06;7.03;;;5.03;;
52590;SDS011;38483;42.620;25.394;2023-03-01T03:30:37;3.97;;;3.57;;
52590;SDS011;38483;42.620;25.394;2023-03-01T03:33:05;4.50;;;3.70;;
52590;SDS011;38483;42.620;25.394;2023-03-01T03:35:34;5.37;;;4.17;;
52590;SDS011;38483;42.620;25.394;2023-03-01T03:38:05;5.03;;;4.03;;
52590;SDS011;38483;42.620;25.394;2023-03-01T03:40:36;3.37;;;2.70;;
52590;SDS011;38483;42.620;25.394;2023-03-01T03:45:51;5.57;;;3.73;;
52590;SDS011;38483;42.620;25.394;2023-03-01T03:48:19;5.13;;;3.20;;
52590;SDS011;38483;42.620;25.394;2023-03-01T03:50:50;4.23;;;3.60;;
52590;SDS011;38483;42.620;25.394;2023-03-01T03:53:22;4.27;;;3.87;;
52590;SDS011;38483;42.620;25.394;2023-03-01T03:55:51;5.03;;;4.03;;
52590;SDS011;38483;42.620;25.394;2023-03-01T03:58:19;4.60;;;3.80;;
52590;SDS011;38483;42.620;25.394;2023-03-01T04:03:34;4.57;;;3.53;;
52590;SDS011;38483;42.620;25.394;2023-03-01T04:06:01;5.40;;;4.73;;
52590;SDS011;38483;42.620;25.394;2023-03-01T04:08:30;5.60;;;3.67;;
52590;SDS011;38483;42.620;25.394;2023-03-01T04:11:02;4.50;;;4.00;;
52590;SDS011;38483;42.620;25.394;2023-03-01T04:13:49;6.40;;;4.73;;
52590;SDS011;38483;42.620;25.394;2023-03-01T04:16:17;6.83;;;5.67;;
52590;SDS011;38483;42.620;25.394;2023-03-01T04:18:45;9.60;;;7.03;;
52590;SDS011;38483;42.620;25.394;2023-03-01T04:21:12;9.13;;;7.37;;
52590;SDS011;38483;42.620;25.394;2023-03-01T04:23:40;9.63;;;7.50;;
52590;SDS011;38483;42.620;25.394;2023-03-01T04:26:07;9.07;;;6.47;;
52590;SDS011;38483;42.620;25.394;2023-03-01T04:31:12;7.10;;;5.50;;
52590;SDS011;38483;42.620;25.394;2023-03-01T04:33:44;7.70;;;6.00;;
52590;SDS011;38483;42.620;25.394;2023-03-01T04:36:29;6.20;;;5.17;;
52590;SDS011;38483;42.620;25.394;2023-03-01T04:38:57;7.03;;;5.50;;
52590;SDS011;38483;42.620;25.394;2023-03-01T04:41:24;7.13;;;6.00;;
52590;SDS011;38483;42.620;25.394;2023-03-01T04:43:52;7.47;;;6.30;;
52590;SDS011;38483;42.620;25.394;2023-03-01T04:46:19;7.93;;;6.57;;
52590;SDS011;38483;42.620;25.394;2023-03-01T04:48:48;8.37;;;6.60;;
52590;SDS011;38483;42.620;25.394;2023-03-01T04:51:15;7.30;;;5.50;;
52590;SDS011;38483;42.620;25.394;2023-03-01T04:53:42;8.17;;;5.77;;
52590;SDS011;38483;42.620;25.394;2023-03-01T04:56:10;6.80;;;5.13;;
52590;SDS011;38483;42.620;25.394;2023-03-01T04:58:40;4.77;;;4.10;;
52590;SDS011;38483;42.620;25.394;2023-03-01T05:01:08;5.47;;;3.77;;
52590;SDS011;38483;42.620;25.394;2023-03-01T05:03:46;6.47;;;4.40;;
52590;SDS011;38483;42.620;25.394;2023-03-01T05:06:15;5.03;;;4.50;;
52590;SDS011;38483;42.620;25.394;2023-03-01T05:08:43;5.77;;;3.57;;
52590;SDS011;38483;42.620;25.394;2023-03-01T05:11:11;5.30;;;4.20;;
52590;SDS011;38483;42.620;25.394;2023-03-01T05:13:38;3.73;;;3.20;;
52590;SDS011;38483;42.620;25.394;2023-03-01T05:16:06;4.80;;;3.47;;
52590;SDS011;38483;42.620;25.394;2023-03-01T05:18:38;5.63;;;3.90;;
52590;SDS011;38483;42.620;25.394;2023-03-01T05:21:11;4.37;;;2.90;;
52590;SDS011;38483;42.620;25.394;2023-03-01T05:23:39;4.47;;;3.50;;
52590;SDS011;38483;42.620;25.394;2023-03-01T05:26:06;5.80;;;4.30;;
52590;SDS011;38483;42.620;25.394;2023-03-01T05:28:48;5.73;;;4.10;;
52590;SDS011;38483;42.620;25.394;2023-03-01T05:31:15;6.63;;;4.27;;
52590;SDS011;38483;42.620;25.394;2023-03-01T05:33:42;6.17;;;4.73;;
52590;SDS011;38483;42.620;25.394;2023-03-01T05:36:09;8.43;;;5.80;;
52590;SDS011;38483;42.620;25.394;2023-03-01T05:38:37;8.70;;;5.10;;
52590;SDS011;38483;42.620;25.394;2023-03-01T05:41:04;12.87;;;9.43;;
52590;SDS011;38483;42.620;25.394;2023-03-01T05:43:31;10.37;;;6.80;;
52590;SDS011;38483;42.620;25.394;2023-03-01T05:46:01;8.23;;;5.83;;
52590;SDS011;38483;42.620;25.394;2023-03-01T05:48:28;7.03;;;5.33;;
52590;SDS011;38483;42.620;25.394;2023-03-01T05:50:57;7.30;;;5.83;;
52590;SDS011;38483;42.620;25.394;2023-03-01T05:53:26;8.27;;;5.53;;
52590;SDS011;38483;42.620;25.394;2023-03-01T05:55:53;6.83;;;5.07;;
52590;SDS011;38483;42.620;25.394;2023-03-01T05:58:20;5.07;;;3.90;;
52590;SDS011;38483;42.620;25.394;2023-03-01T06:00:49;5.70;;;4.30;;
52590;SDS011;38483;42.620;25.394;2023-03-01T06:03:20;5.20;;;3.80;;
52590;SDS011;38483;42.620;25.394;2023-03-01T06:05:47;3.20;;;2.90;;
52590;SDS011;38483;42.620;25.394;2023-03-01T06:08:14;4.47;;;3.43;;
52590;SDS011;38483;42.620;25.394;2023-03-01T06:10:41;4.63;;;4.07;;
52590;SDS011;38483;42.620;25.394;2023-03-01T06:13:08;11.07;;;6.83;;
52590;SDS011;38483;42.620;25.394;2023-03-01T06:15:35;8.73;;;6.60;;
52590;SDS011;38483;42.620;25.394;2023-03-01T06:18:02;8.43;;;7.07;;
52590;SDS011;38483;42.620;25.394;2023-03-01T06:20:29;10.33;;;8.73;;
52590;SDS011;38483;42.620;25.394;2023-03-01T06:22:56;8.50;;;6.67;;
52590;SDS011;38483;42.620;25.394;2023-03-01T06:25:24;10.60;;;7.97;;
52590;SDS011;38483;42.620;25.394;2023-03-01T06:27:53;6.90;;;5.77;;
52590;SDS011;38483;42.620;25.394;2023-03-01T06:30:23;7.43;;;5.63;;
52590;SDS011;38483;42.620;25.394;2023-03-01T06:32:52;5.50;;;5.00;;
52590;SDS011;38483;42.620;25.394;2023-03-01T06:35:27;6.00;;;5.37;;
52590;SDS011;38483;42.620;25.394;2023-03-01T06:37:59;10.23;;;7.13;;
52590;SDS011;38483;42.620;25.394;2023-03-01T06:40:27;10.83;;;8.00;;
52590;SDS011;38483;42.620;25.394;2023-03-01T06:42:55;11.47;;;7.07;;
52590;SDS011;38483;42.620;25.394;2023-03-01T06:45:22;23.87;;;15.60;;
52590;SDS011;38483;42.620;25.394;2023-03-01T06:47:49;12.83;;;9.50;;
52590;SDS011;38483;42.620;25.394;2023-03-01T06:50:16;11.83;;;6.97;;
52590;SDS011;38483;42.620;25.394;2023-03-01T06:52:44;6.70;;;5.07;;
52590;SDS011;38483;42.620;25.394;2023-03-01T06:55:11;6.80;;;5.73;;
52590;SDS011;38483;42.620;25.394;2023-03-01T06:57:39;6.93;;;5.37;;
52590;SDS011;38483;42.620;25.394;2023-03-01T07:00:07;7.67;;;5.50;;
52590;SDS011;38483;42.620;25.394;2023-03-01T07:02:34;6.77;;;5.43;;
52590;SDS011;38483;42.620;25.394;2023-03-01T07:05:02;5.53;;;5.00;;
52590;SDS011;38483;42.620;25.394;2023-03-01T07:07:29;5.13;;;4.00;;
52590;SDS011;38483;42.620;25.394;2023-03-01T07:09:56;5.90;;;4.37;;
52590;SDS011;38483;42.620;25.394;2023-03-01T07:12:23;8.03;;;5.50;;
52590;SDS011;38483;42.620;25.394;2023-03-01T07:14:50;6.57;;;4.90;;
52590;SDS011;38483;42.620;25.394;2023-03-01T07:17:17;6.47;;;5.23;;
52590;SDS011;38483;42.620;25.394;2023-03-01T07:19:45;6.20;;;5.03;;
52590;SDS011;38483;42.620;25.394;2023-03-01T07:22:12;5.97;;;4.47;;
52590;SDS011;38483;42.620;25.394;2023-03-01T07:24:40;7.50;;;5.13;;
52590;SDS011;38483;42.620;25.394;2023-03-01T07:27:07;7.90;;;6.10;;
52590;SDS011;38483;42.620;25.394;2023-03-01T07:29:34;8.83;;;6.77;;
52590;SDS011;38483;42.620;25.394;2023-03-01T07:32:03;8.60;;;5.90;;
52590;SDS011;38483;42.620;25.394;2023-03-01T07:34:31;14.03;;;7.57;;
52590;SDS011;38483;42.620;25.394;2023-03-01T07:36:58;10.60;;;7.83;;
52590;SDS011;38483;42.620;25.394;2023-03-01T07:39:26;13.60;;;8.10;;
52590;SDS011;38483;42.620;25.394;2023-03-01T07:41:53;9.67;;;6.60;;
52590;SDS011;38483;42.620;25.394;2023-03-01T07:44:21;9.87;;;6.13;;
52590;SDS011;38483;42.620;25.394;2023-03-01T07:46:48;11.60;;;7.00;;
52590;SDS011;38483;42.620;25.394;2023-03-01T07:49:15;9.67;;;7.10;;
52590;SDS011;38483;42.620;25.394;2023-03-01T07:51:43;9.77;;;6.77;;
52590;SDS011;38483;42.620;25.394;2023-03-01T07:54:10;13.00;;;9.30;;
52590;SDS011;38483;42.620;25.394;2023-03-01T07:56:37;7.70;;;6.20;;
52590;SDS011;38483;42.620;25.394;2023-03-01T07:59:04;9.30;;;6.27;;
52590;SDS011;38483;42.620;25.394;2023-03-01T08:01:31;8.20;;;5.90;;
52590;SDS011;38483;42.620;25.394;2023-03-01T08:03:58;5.50;;;3.37;;
52590;SDS011;38483;42.620;25.394;2023-03-01T08:06:25;9.67;;;5.67;;
52590;SDS011;38483;42.620;25.394;2023-03-01T08:08:52;7.23;;;5.23;;
52590;SDS011;38483;42.620;25.394;2023-03-01T08:11:21;8.80;;;5.90;;
52590;SDS011;38483;42.620;25.394;2023-03-01T08:13:49;10.13;;;7.60;;
52590;SDS011;38483;42.620;25.394;2023-03-01T08:16:19;8.73;;;5.53;;
52590;SDS011;38483;42.620;25.394;2023-03-01T08:18:46;8.63;;;5.90;;
52590;SDS011;38483;42.620;25.394;2023-03-01T08:21:22;9.77;;;5.80;;
52590;SDS011;38483;42.620;25.394;2023-03-01T08:23:49;10.33;;;6.30;;
52590;SDS011;38483;42.620;25.394;2023-03-01T08:26:17;15.67;;;10.57;;
52590;SDS011;38483;42.620;25.394;2023-03-01T08:28:46;8.07;;;6.13;;
52590;SDS011;38483;42.620;25.394;2023-03-01T08:33:46;6.20;;;4.93;;
52590;SDS011;38483;42.620;25.394;2023-03-01T08:36:25;8.43;;;4.93;;
52590;SDS011;38483;42.620;25.394;2023-03-01T08:38:55;6.60;;;5.13;;
52590;SDS011;38483;42.620;25.394;2023-03-01T08:41:23;7.20;;;5.30;;
52590;SDS011;38483;42.620;25.394;2023-03-01T08:43:51;5.67;;;4.80;;
52590;SDS011;38483;42.620;25.394;2023-03-01T08:46:19;16.23;;;7.17;;
52590;SDS011;38483;42.620;25.394;2023-03-01T08:48:46;8.00;;;6.50;;
52590;SDS011;38483;42.620;25.394;2023-03-01T08:51:14;8.80;;;7.63;;
52590;SDS011;38483;42.620;25.394;2023-03-01T08:53:45;6.40;;;4.87;;
52590;SDS011;38483;42.620;25.394;2023-03-01T08:56:14;6.80;;;5.00;;
52590;SDS011;38483;42.620;25.394;2023-03-01T08:58:46;7.27;;;5.10;;
52590;SDS011;38483;42.620;25.394;2023-03-01T09:01:15;9.00;;;6.03;;
52590;SDS011;38483;42.620;25.394;2023-03-01T09:03:44;8.47;;;6.23;;
52590;SDS011;38483;42.620;25.394;2023-03-01T09:06:12;10.90;;;6.70;;
52590;SDS011;38483;42.620;25.394;2023-03-01T09:08:41;7.97;;;6.80;;
52590;SDS011;38483;42.620;25.394;2023-03-01T09:11:10;8.50;;;6.47;;
52590;SDS011;38483;42.620;25.394;2023-03-01T09:13:39;9.50;;;5.57;;
52590;SDS011;38483;42.620;25.394;2023-03-01T09:16:10;8.87;;;6.17;;
52590;SDS011;38483;42.620;25.394;2023-03-01T09:18:39;10.03;;;6.77;;
52590;SDS011;38483;42.620;25.394;2023-03-01T09:21:11;9.67;;;5.93;;
52590;SDS011;38483;42.620;25.394;2023-03-01T09:23:42;7.77;;;6.43;;
52590;SDS011;38483;42.620;25.394;2023-03-01T09:26:12;10.70;;;7.00;;
52590;SDS011;38483;42.620;25.394;2023-03-01T09:28:43;8.87;;;6.27;;
52590;SDS011;38483;42.620;25.394;2023-03-01T09:31:13;9.53;;;6.23;;
52590;SDS011;38483;42.620;25.394;2023-03-01T09:33:42;14.70;;;8.70;;
52590;SDS011;38483;42.620;25.394;2023-03-01T09:36:13;16.47;;;11.17;;
52590;SDS011;38483;42.620;25.394;2023-03-01T09:38:42;12.40;;;8.43;;
52590;SDS011;38483;42.620;25.394;2023-03-01T09:44:12;14.87;;;10.77;;
52590;SDS011;38483;42.620;25.394;2023-03-01T09:46:59;16.17;;;10.20;;
52590;SDS011;38483;42.620;25.394;2023-03-01T09:49:28;11.63;;;8.93;;
52590;SDS011;38483;42.620;25.394;2023-03-01T09:55:04;12.90;;;9.23;;
52590;SDS011;38483;42.620;25.394;2023-03-01T10:00:28;12.80;;;9.60;;
52590;SDS011;38483;42.620;25.394;2023-03-01T10:04:17;9.93;;;7.60;;
52590;SDS011;38483;42.620;25.394;2023-03-01T10:06:12;10.87;;;7.50;;
52590;SDS011;38483;42.620;25.394;2023-03-01T10:09:13;9.90;;;7.40;;
52590;SDS011;38483;42.620;25.394;2023-03-01T10:11:48;11.13;;;7.70;;
52590;SDS011;38483;42.620;25.394;2023-03-01T10:19:44;13.17;;;9.07;;
52590;SDS011;38483;42.620;25.394;2023-03-01T10:22:15;10.13;;;7.70;;
52590;SDS011;38483;42.620;25.394;2023-03-01T10:24:48;12.37;;;9.37;;
52590;SDS011;38483;42.620;25.394;2023-03-01T10:27:18;16.60;;;9.80;;
52590;SDS011;38483;42.620;25.394;2023-03-01T10:32:43;10.63;;;7.33;;
52590;SDS011;38483;42.620;25.394;2023-03-01T10:35:28;13.17;;;9.37;;
52590;SDS011;38483;42.620;25.394;2023-03-01T10:38:06;11.73;;;9.33;;
52590;SDS011;38483;42.620;25.394;2023-03-01T10:40:50;13.33;;;9.10;;
52590;SDS011;38483;42.620;25.394;2023-03-01T10:43:47;12.13;;;9.00;;
52590;SDS011;38483;42.620;25.394;2023-03-01T10:46:23;13.13;;;9.80;;
52590;SDS011;38483;42.620;25.394;2023-03-01T10:49:10;11.30;;;8.00;;
52590;SDS011;38483;42.620;25.394;2023-03-01T10:51:40;14.30;;;8.63;;
52590;SDS011;38483;42.620;25.394;2023-03-01T10:54:20;18.47;;;10.10;;
52590;SDS011;38483;42.620;25.394;2023-03-01T10:56:53;19.13;;;12.80;;
52590;SDS011;38483;42.620;25.394;2023-03-01T10:59:25;15.87;;;10.37;;
52590;SDS011;38483;42.620;25.394;2023-03-01T11:04:58;10.57;;;8.70;;
52590;SDS011;38483;42.620;25.394;2023-03-01T11:07:47;14.40;;;10.73;;
52590;SDS011;38483;42.620;25.394;2023-03-01T11:10:21;15.60;;;10.63;;
52590;SDS011;38483;42.620;25.394;2023-03-01T11:12:51;10.20;;;8.17;;
52590;SDS011;38483;42.620;25.394;2023-03-01T11:15:26;15.93;;;9.83;;
52590;SDS011;38483;42.620;25.394;2023-03-01T11:17:55;13.57;;;9.93;;
52590;SDS011;38483;42.620;25.394;2023-03-01T11:20:38;12.67;;;8.80;;
52590;SDS011;38483;42.620;25.394;2023-03-01T11:23:09;12.57;;;8.87;;
52590;SDS011;38483;42.620;25.394;2023-03-01T11:25:40;12.50;;;7.63;;
52590;SDS011;38483;42.620;25.394;2023-03-01T11:28:16;14.90;;;9.13;;
52590;SDS011;38483;42.620;25.394;2023-03-01T11:33:49;14.13;;;8.90;;
52590;SDS011;38483;42.620;25.394;2023-03-01T11:42:18;12.77;;;9.67;;
52590;SDS011;38483;42.620;25.394;2023-03-01T11:44:52;10.73;;;8.47;;
52590;SDS011;38483;42.620;25.394;2023-03-01T11:50:13;17.50;;;10.70;;
52590;SDS011;38483;42.620;25.394;2023-03-01T11:52:57;12.87;;;9.50;;
52590;SDS011;38483;42.620;25.394;2023-03-01T12:04:03;19.40;;;14.53;;
52590;SDS011;38483;42.620;25.394;2023-03-01T12:07:04;19.57;;;13.43;;
52590;SDS011;38483;42.620;25.394;2023-03-01T12:25:54;15.67;;;10.97;;
52590;SDS011;38483;42.620;25.394;2023-03-01T12:28:34;18.00;;;11.30;;
52590;SDS011;38483;42.620;25.394;2023-03-01T12:45:23;11.47;;;8.80;;
52590;SDS011;38483;42.620;25.394;2023-03-01T12:51:14;10.30;;;7.80;;
52590;SDS011;38483;42.620;25.394;2023-03-01T12:53:45;11.33;;;8.53;;
52590;SDS011;38483;42.620;25.394;2023-03-01T12:56:16;14.87;;;10.80;;
52590;SDS011;38483;42.620;25.394;2023-03-01T13:04:02;15.93;;;11.60;;
52590;SDS011;38483;42.620;25.394;2023-03-01T13:12:04;15.50;;;11.30;;
52590;SDS011;38483;42.620;25.394;2023-03-01T13:20:21;14.90;;;11.80;;
52590;SDS011;38483;42.620;25.394;2023-03-01T13:23:00;23.77;;;12.77;;
52590;SDS011;38483;42.620;25.394;2023-03-01T13:25:30;17.33;;;10.63;;
52590;SDS011;38483;42.620;25.394;2023-03-01T13:31:09;10.37;;;8.10;;
52590;SDS011;38483;42.620;25.394;2023-03-01T13:33:43;13.27;;;8.97;;
52590;SDS011;38483;42.620;25.394;2023-03-01T13:38:57;15.30;;;8.50;;
52590;SDS011;38483;42.620;25.394;2023-03-01T13:44:13;18.83;;;10.63;;
52590;SDS011;38483;42.620;25.394;2023-03-01T13:46:56;15.97;;;10.67;;
52590;SDS011;38483;42.620;25.394;2023-03-01T13:49:27;18.57;;;9.97;;
52590;SDS011;38483;42.620;25.394;2023-03-01T13:58:24;17.00;;;11.30;;
52590;SDS011;38483;42.620;25.394;2023-03-01T14:03:24;15.03;;;10.43;;
52590;SDS011;38483;42.620;25.394;2023-03-01T14:06:05;15.27;;;11.37;;
52590;SDS011;38483;42.620;25.394;2023-03-01T14:08:42;19.07;;;13.33;;
52590;SDS011;38483;42.620;25.394;2023-03-01T14:19:29;16.63;;;10.30;;
52590;SDS011;38483;42.620;25.394;2023-03-01T14:24:40;16.30;;;10.93;;
52590;SDS011;38483;42.620;25.394;2023-03-01T14:27:15;15.17;;;10.50;;
52590;SDS011;38483;42.620;25.394;2023-03-01T14:29:44;21.70;;;14.47;;
52590;SDS011;38483;42.620;25.394;2023-03-01T14:32:24;24.80;;;14.13;;
52590;SDS011;38483;42.620;25.394;2023-03-01T14:34:53;20.57;;;12.83;;
52590;SDS011;38483;42.620;25.394;2023-03-01T14:37:22;18.33;;;10.73;;
52590;SDS011;38483;42.620;25.394;2023-03-01T14:39:51;16.17;;;10.90;;
52590;SDS011;38483;42.620;25.394;2023-03-01T14:42:20;19.03;;;12.63;;
52590;SDS011;38483;42.620;25.394;2023-03-01T14:44:50;21.93;;;14.20;;
52590;SDS011;38483;42.620;25.394;2023-03-01T14:47:26;23.07;;;14.17;;
52590;SDS011;38483;42.620;25.394;2023-03-01T14:50:00;20.57;;;13.83;;
52590;SDS011;38483;42.620;25.394;2023-03-01T14:52:32;21.30;;;14.60;;
52590;SDS011;38483;42.620;25.394;2023-03-01T14:55:04;22.97;;;14.17;;
52590;SDS011;38483;42.620;25.394;2023-03-01T14:57:33;21.93;;;14.27;;
52590;SDS011;38483;42.620;25.394;2023-03-01T15:00:01;18.80;;;13.43;;
52590;SDS011;38483;42.620;25.394;2023-03-01T15:02:33;13.43;;;10.07;;
52590;SDS011;38483;42.620;25.394;2023-03-01T15:05:01;14.67;;;10.77;;
52590;SDS011;38483;42.620;25.394;2023-03-01T15:07:35;14.67;;;9.93;;
52590;SDS011;38483;42.620;25.394;2023-03-01T15:10:06;16.60;;;10.30;;
52590;SDS011;38483;42.620;25.394;2023-03-01T15:12:42;17.90;;;11.73;;
52590;SDS011;38483;42.620;25.394;2023-03-01T15:20:44;13.87;;;10.13;;
52590;SDS011;38483;42.620;25.394;2023-03-01T15:23:19;15.13;;;11.60;;
52590;SDS011;38483;42.620;25.394;2023-03-01T15:25:52;16.10;;;10.33;;
52590;SDS011;38483;42.620;25.394;2023-03-01T15:28:25;15.30;;;10.70;;
52590;SDS011;38483;42.620;25.394;2023-03-01T15:31:28;15.80;;;10.63;;
52590;SDS011;38483;42.620;25.394;2023-03-01T15:33:49;18.40;;;12.40;;
52590;SDS011;38483;42.620;25.394;2023-03-01T15:39:05;18.97;;;11.83;;
52590;SDS011;38483;42.620;25.394;2023-03-01T15:41:52;20.13;;;12.17;;
52590;SDS011;38483;42.620;25.394;2023-03-01T15:44:27;18.77;;;11.53;;
52590;SDS011;38483;42.620;25.394;2023-03-01T15:47:22;15.93;;;10.83;;
52590;SDS011;38483;42.620;25.394;2023-03-01T15:49:52;19.37;;;11.73;;
52590;SDS011;38483;42.620;25.394;2023-03-01T15:55:03;17.33;;;11.97;;
52590;SDS011;38483;42.620;25.394;2023-03-01T15:57:34;13.00;;;8.80;;
52590;SDS011;38483;42.620;25.394;2023-03-01T16:00:01;10.87;;;7.90;;
52590;SDS011;38483;42.620;25.394;2023-03-01T16:02:30;10.50;;;7.57;;
52590;SDS011;38483;42.620;25.394;2023-03-01T16:04:57;8.27;;;6.63;;
52590;SDS011;38483;42.620;25.394;2023-03-01T16:07:24;13.20;;;8.03;;
52590;SDS011;38483;42.620;25.394;2023-03-01T16:09:54;10.77;;;7.93;;
52590;SDS011;38483;42.620;25.394;2023-03-01T16:12:21;12.77;;;8.40;;
52590;SDS011;38483;42.620;25.394;2023-03-01T16:14:48;17.57;;;11.67;;
52590;SDS011;38483;42.620;25.394;2023-03-01T16:17:15;16.50;;;11.03;;
52590;SDS011;38483;42.620;25.394;2023-03-01T16:19:42;15.87;;;10.90;;
52590;SDS011;38483;42.620;25.394;2023-03-01T16:22:10;13.27;;;8.70;;
52590;SDS011;38483;42.620;25.394;2023-03-01T16:24:37;19.83;;;12.77;;
52590;SDS011;38483;42.620;25.394;2023-03-01T16:27:04;15.33;;;11.07;;
52590;SDS011;38483;42.620;25.394;2023-03-01T16:29:31;11.87;;;8.40;;
52590;SDS011;38483;42.620;25.394;2023-03-01T16:32:04;12.93;;;7.83;;
52590;SDS011;38483;42.620;25.394;2023-03-01T16:34:31;14.10;;;10.00;;
52590;SDS011;38483;42.620;25.394;2023-03-01T16:36:58;11.47;;;7.90;;
52590;SDS011;38483;42.620;25.394;2023-03-01T16:39:25;12.90;;;8.83;;
52590;SDS011;38483;42.620;25.394;2023-03-01T16:41:52;10.80;;;7.57;;
52590;SDS011;38483;42.620;25.394;2023-03-01T16:44:22;13.60;;;7.50;;
52590;SDS011;38483;42.620;25.394;2023-03-01T16:46:49;15.53;;;9.10;;
52590;SDS011;38483;42.620;25.394;2023-03-01T16:49:16;16.57;;;10.03;;
52590;SDS011;38483;42.620;25.394;2023-03-01T16:51:43;15.00;;;9.10;;
52590;SDS011;38483;42.620;25.394;2023-03-01T16:54:10;13.53;;;7.93;;
52590;SDS011;38483;42.620;25.394;2023-03-01T16:56:37;13.50;;;8.90;;
52590;SDS011;38483;42.620;25.394;2023-03-01T16:59:06;13.20;;;8.90;;
52590;SDS011;38483;42.620;25.394;2023-03-01T17:01:33;13.93;;;9.50;;
52590;SDS011;38483;42.620;25.394;2023-03-01T17:04:09;16.23;;;9.73;;
52590;SDS011;38483;42.620;25.394;2023-03-01T17:06:38;13.50;;;9.10;;
52590;SDS011;38483;42.620;25.394;2023-03-01T17:09:05;14.10;;;9.50;;
52590;SDS011;38483;42.620;25.394;2023-03-01T17:11:32;21.67;;;11.97;;
52590;SDS011;38483;42.620;25.394;2023-03-01T17:13:59;19.17;;;11.97;;
52590;SDS011;38483;42.620;25.394;2023-03-01T17:16:26;18.70;;;12.50;;
52590;SDS011;38483;42.620;25.394;2023-03-01T17:18:53;20.87;;;13.07;;
52590;SDS011;38483;42.620;25.394;2023-03-01T17:21:20;18.20;;;10.47;;
52590;SDS011;38483;42.620;25.394;2023-03-01T17:23:49;20.20;;;11.67;;